Time;durP1;ratioP1;P1;durP2;ratioP2;P2;SDS_P1;SDS_P2;PMS_P1;PMS_P2;Temp;Humidity;BMP_temperature;BMP_pressure;BME280_temperature;BME280_humidity;BME280_pressure;Samples;Min_cycle;Max_cycle;Signal;HPM_P1;HPM_P2
2021/01/08 00:00:49;;;;;;;3.08;2.10;;;3.90;92.70;;;;;;5058107;28;20025;-87
2021/01/08 00:03:19;;;;;;;3.00;2.17;;;3.90;92.70;;;;;;5057343;28;20024;-87
2021/01/08 00:05:45;;;;;;;3.03;2.17;;;3.90;92.70;;;;;;5056971;28;20031;-87
2021/01/08 00:08:20;;;;;;;2.40;2.15;;;3.90;92.70;;;;;;5057429;28;20287;-86
2021/01/08 00:10:55;;;;;;;3.13;2.47;;;3.90;92.70;;;;;;5075073;28;20025;-87
2021/01/08 00:13:39;;;;;;;3.00;2.20;;;3.80;92.70;;;;;;5057266;28;20040;-87
2021/01/08 00:16:07;;;;;;;2.90;2.25;;;3.80;92.70;;;;;;5057074;28;20025;-86
2021/01/08 00:18:45;;;;;;;4.28;2.33;;;3.80;92.70;;;;;;5071854;28;20055;-87
2021/01/08 00:21:16;;;;;;;2.88;2.00;;;3.90;92.70;;;;;;5077212;28;20482;-87
2021/01/08 00:23:52;;;;;;;;;;;;;;;;;;;;;
2021/01/08 00:26:22;;;;;;;2.55;2.13;;;3.80;92.70;;;;;;5094698;28;20038;-86
2021/01/08 00:28:48;;;;;;;3.33;2.10;;;3.90;92.70;;;;;;5091662;28;20464;-87
2021/01/08 00:31:13;;;;;;;3.35;2.25;;;3.90;92.70;;;;;;5067493;28;20039;-87
2021/01/08 00:33:42;;;;;;;2.85;2.00;;;3.80;92.70;;;;;;5091706;28;20082;-87
2021/01/08 00:36:10;;;;;;;2.38;2.17;;;3.90;92.70;;;;;;5080964;28;20028;-87
2021/01/08 00:38:36;;;;;;;2.30;2.00;;;3.80;92.70;;;;;;5058873;28;20054;-87
2021/01/08 00:41:12;;;;;;;2.58;2.10;;;3.80;92.70;;;;;;5076938;28;20459;-87
2021/01/08 00:43:47;;;;;;;2.10;1.90;;;3.80;92.70;;;;;;5073476;28;20031;-86
2021/01/08 00:46:19;;;;;;;2.40;2.10;;;3.80;92.70;;;;;;5066256;28;20435;-86
2021/01/08 00:48:48;;;;;;;1.98;1.77;;;3.80;92.70;;;;;;5076558;28;20062;-88
2021/01/08 00:51:16;;;;;;;2.70;1.85;;;3.90;92.70;;;;;;5083976;28;20024;-87
2021/01/08 00:53:46;;;;;;;1.98;1.65;;;3.80;92.70;;;;;;5079266;28;20024;-87
2021/01/08 00:56:19;;;;;;;2.72;1.70;;;3.80;92.70;;;;;;5065668;28;20123;-87
2021/01/08 00:58:45;;;;;;;2.30;1.80;;;3.80;92.70;;;;;;5079283;28;20178;-86
2021/01/08 01:01:13;;;;;;;2.20;1.77;;;3.90;92.70;;;;;;5075807;28;20124;-87
2021/01/08 01:03:44;;;;;;;1.77;1.63;;;3.90;92.70;;;;;;5059160;28;20039;-86
2021/01/08 01:06:17;;;;;;;3.63;2.10;;;3.90;92.70;;;;;;5078009;28;20028;-87
2021/01/08 01:08:53;;;;;;;;;;;;;;;;;;;;;
2021/01/08 01:11:27;;;;;;;3.20;2.08;;;3.90;92.70;;;;;;5076473;28;20032;-88
2021/01/08 01:14:03;;;;;;;1.92;1.73;;;3.90;92.60;;;;;;5094621;28;20027;-87
2021/01/08 01:16:34;;;;;;;2.17;1.98;;;3.90;92.60;;;;;;5074733;28;20031;-87
2021/01/08 01:19:09;;;;;;;2.20;1.80;;;3.90;92.60;;;;;;5056976;28;20139;-87
2021/01/08 01:21:37;;;;;;;3.30;2.40;;;3.90;92.60;;;;;;5081979;28;20032;-87
2021/01/08 01:24:08;;;;;;;2.50;2.00;;;3.90;92.60;;;;;;5080331;28;20387;-87
2021/01/08 01:26:39;;;;;;;2.75;2.08;;;3.90;92.60;;;;;;5090481;28;20387;-87
2021/01/08 01:29:08;;;;;;;3.28;2.20;;;3.90;92.60;;;;;;5076526;28;20028;-87
2021/01/08 01:31:39;;;;;;;2.15;1.95;;;3.90;92.60;;;;;;5074844;28;20035;-86
2021/01/08 01:34:07;;;;;;;2.10;1.90;;;3.80;92.60;;;;;;5075963;28;20439;-86
2021/01/08 01:36:43;;;;;;;2.72;2.13;;;3.80;92.60;;;;;;5059342;28;20028;-86
2021/01/08 01:39:09;;;;;;;2.58;2.10;;;3.80;92.60;;;;;;5060401;28;20416;-86
2021/01/08 01:41:46;;;;;;;2.20;1.98;;;3.80;92.70;;;;;;5075447;28;20356;-87
2021/01/08 01:44:14;;;;;;;3.92;2.15;;;3.80;92.70;;;;;;5076174;28;20062;-87
2021/01/08 01:46:47;;;;;;;2.35;2.00;;;3.80;92.70;;;;;;5075430;28;20028;-87
2021/01/08 01:49:15;;;;;;;4.18;2.30;;;3.80;92.70;;;;;;5069790;28;20031;-86
2021/01/08 01:51:41;;;;;;;2.88;2.13;;;3.80;92.70;;;;;;5058628;28;20043;-87
2021/01/08 01:54:24;;;;;;;;;;;;;;;;;;;;;
2021/01/08 01:56:51;;;;;;;2.17;1.98;;;3.80;92.70;;;;;;5062891;28;20506;-86
2021/01/08 01:59:17;;;;;;;2.58;2.38;;;3.80;92.70;;;;;;5075482;28;20020;-86
2021/01/08 02:01:42;;;;;;;3.85;2.20;;;3.90;92.70;;;;;;5075403;28;20821;-87
2021/01/08 02:04:08;;;;;;;2.53;2.33;;;3.90;92.70;;;;;;5058635;28;20374;-87
2021/01/08 02:06:36;;;;;;;2.80;2.42;;;3.80;92.60;;;;;;5075263;28;20085;-87
2021/01/08 02:09:09;;;;;;;2.55;2.20;;;3.80;92.60;;;;;;5075543;28;20427;-86
2021/01/08 02:11:36;;;;;;;2.63;2.10;;;3.80;92.70;;;;;;5075250;28;20414;-86
2021/01/08 02:14:27;;;;;;;3.05;2.38;;;3.80;92.90;;;;;;5093480;28;20494;-86
2021/01/08 02:17:00;;;;;;;3.00;2.30;;;3.80;92.70;;;;;;5074986;28;20027;-87
2021/01/08 02:19:41;;;;;;;2.50;2.30;;;3.80;92.70;;;;;;5074517;28;20804;-88
2021/01/08 02:22:28;;;;;;;2.45;2.08;;;3.70;92.60;;;;;;5093771;28;20099;-87
2021/01/08 02:25:06;;;;;;;3.50;2.13;;;3.70;92.60;;;;;;5075483;28;20482;-86
2021/01/08 02:27:43;;;;;;;3.17;2.35;;;3.70;92.70;;;;;;5075285;28;20028;-87
2021/01/08 02:30:09;;;;;;;3.35;2.30;;;3.70;92.60;;;;;;5074773;28;20119;-87
2021/01/08 02:32:40;;;;;;;2.65;2.28;;;3.70;92.60;;;;;;5093056;28;20035;-87
2021/01/08 02:35:19;;;;;;;;;;;;;;;;;;;;;
2021/01/08 02:37:47;;;;;;;3.08;2.40;;;3.70;92.70;;;;;;5093394;28;20032;-86
2021/01/08 02:40:17;;;;;;;2.72;2.30;;;3.70;92.60;;;;;;5058224;28;20035;-86
2021/01/08 02:42:45;;;;;;;3.35;2.25;;;3.70;92.60;;;;;;5074823;28;20024;-87
2021/01/08 02:45:11;;;;;;;3.13;2.58;;;3.70;92.60;;;;;;5074249;28;20027;-87
2021/01/08 02:47:37;;;;;;;2.72;2.30;;;3.70;92.60;;;;;;5068583;28;20034;-86
2021/01/08 02:50:07;;;;;;;2.28;1.98;;;3.70;92.90;;;;;;5074370;28;20029;-87
2021/01/08 02:52:47;;;;;;;3.03;2.30;;;3.60;92.60;;;;;;5080587;28;20468;-86
2021/01/08 02:55:23;;;;;;;3.33;2.03;;;3.70;92.60;;;;;;5092469;28;20099;-86
2021/01/08 02:57:50;;;;;;;2.47;2.08;;;3.60;92.60;;;;;;5074180;28;20820;-87
2021/01/08 03:00:19;;;;;;;2.75;1.90;;;3.60;92.60;;;;;;5074337;28;20498;-87
2021/01/08 03:02:51;;;;;;;2.53;2.17;;;3.60;92.60;;;;;;5077647;28;20034;-87
2021/01/08 03:05:16;;;;;;;2.20;1.98;;;3.60;92.60;;;;;;5079372;28;20066;-86
2021/01/08 03:07:54;;;;;;;2.15;1.88;;;3.60;92.60;;;;;;5078895;28;20024;-87
2021/01/08 03:10:32;;;;;;;2.10;1.90;;;3.60;92.60;;;;;;5078168;28;20028;-87
2021/01/08 03:13:04;;;;;;;2.72;2.03;;;3.60;92.60;;;;;;5079113;28;20052;-86
2021/01/08 03:15:33;;;;;;;2.90;2.33;;;3.60;92.60;;;;;;5078701;28;20016;-86
2021/01/08 03:17:59;;;;;;;2.25;1.70;;;3.60;92.70;;;;;;5076362;28;20125;-87
2021/01/08 03:20:27;;;;;;;2.58;1.90;;;3.60;92.60;;;;;;5061349;28;20427;-86
2021/01/08 03:22:56;;;;;;;2.70;2.13;;;3.70;92.70;;;;;;5078604;28;20028;-86
2021/01/08 03:25:38;;;;;;;1.90;1.70;;;3.60;92.60;;;;;;5096568;28;20024;-87
2021/01/08 03:28:24;;;;;;;2.63;1.95;;;3.60;92.70;;;;;;5078347;28;20419;-87
2021/01/08 03:30:55;;;;;;;2.80;1.90;;;3.60;92.70;;;;;;5072898;28;20033;-86
2021/01/08 03:33:23;;;;;;;2.55;2.35;;;3.60;92.70;;;;;;5078102;28;20468;-86
2021/01/08 03:35:49;;;;;;;2.20;2.00;;;3.70;92.70;;;;;;5057911;28;20032;-86
2021/01/08 03:38:15;;;;;;;4.40;2.38;;;3.60;92.70;;;;;;5066863;28;20107;-87
2021/01/08 03:40:45;;;;;;;2.78;2.03;;;3.70;92.70;;;;;;5066001;28;20432;-87
2021/01/08 03:43:11;;;;;;;2.95;2.10;;;3.70;92.70;;;;;;5061590;28;20118;-86
2021/01/08 03:45:38;;;;;;;2.63;1.98;;;3.70;92.70;;;;;;5077138;28;20059;-87
2021/01/08 03:48:14;;;;;;;2.78;2.10;;;3.60;92.70;;;;;;5095848;28;20057;-87
2021/01/08 03:50:40;;;;;;;2.58;1.88;;;3.60;92.70;;;;;;5078034;28;20090;-87
2021/01/08 03:53:06;;;;;;;2.47;2.17;;;3.70;92.70;;;;;;5061987;28;20526;-86
2021/01/08 03:55:49;;;;;;;2.67;2.22;;;3.60;92.70;;;;;;5077202;28;20468;-86
2021/01/08 03:58:15;;;;;;;2.83;2.15;;;3.70;92.80;;;;;;5077534;28;20392;-86
2021/01/08 04:00:44;;;;;;;2.55;2.13;;;3.70;92.70;;;;;;5101827;28;20021;-87
2021/01/08 04:03:29;;;;;;;2.40;2.05;;;3.70;92.80;;;;;;5088722;28;20055;-87
2021/01/08 04:05:55;;;;;;;2.50;2.17;;;3.70;92.80;;;;;;5077374;28;20020;-87
2021/01/08 04:08:35;;;;;;;;;;;;;;;;;;;;;
2021/01/08 04:11:01;;;;;;;2.65;2.30;;;3.70;92.70;;;;;;5106311;28;20467;-86
2021/01/08 04:13:30;;;;;;;3.38;2.00;;;3.70;92.80;;;;;;5084259;28;20106;-86
2021/01/08 04:16:08;;;;;;;2.38;2.15;;;3.70;92.80;;;;;;5084574;28;20292;-86
2021/01/08 04:18:38;;;;;;;2.83;2.10;;;3.70;92.80;;;;;;5076367;28;20062;-86
2021/01/08 04:21:07;;;;;;;3.30;2.43;;;3.70;92.80;;;;;;5057963;28;20021;-86
2021/01/08 04:23:42;;;;;;;3.72;2.05;;;3.70;92.80;;;;;;5074041;28;20767;-87
2021/01/08 04:26:10;;;;;;;3.05;2.50;;;3.70;92.80;;;;;;5093580;28;20024;-87
2021/01/08 04:28:41;;;;;;;2.78;2.25;;;3.70;92.80;;;;;;5059299;28;20085;-88
2021/01/08 04:31:07;;;;;;;2.55;2.20;;;3.70;92.80;;;;;;5077032;28;20016;-87
2021/01/08 04:33:40;;;;;;;2.90;2.13;;;3.70;92.80;;;;;;5053902;28;20047;-86
2021/01/08 04:36:08;;;;;;;2.33;2.08;;;3.70;92.80;;;;;;5076843;28;20555;-88
2021/01/08 04:38:38;;;;;;;2.95;2.33;;;3.70;92.80;;;;;;5095138;28;20139;-87
2021/01/08 04:41:13;;;;;;;3.55;2.30;;;3.70;92.80;;;;;;5076632;28;20028;-86
2021/01/08 04:43:45;;;;;;;3.03;2.47;;;3.70;92.80;;;;;;5095062;28;20032;-88
2021/01/08 04:46:23;;;;;;;2.47;2.13;;;3.70;92.80;;;;;;5076639;28;20420;-87
2021/01/08 04:48:52;;;;;;;2.70;1.92;;;3.70;92.80;;;;;;5076522;28;20058;-86
2021/01/08 04:51:18;;;;;;;2.65;1.90;;;3.70;92.80;;;;;;5076857;28;20428;-87
2021/01/08 04:53:49;;;;;;;2.45;2.25;;;3.70;92.80;;;;;;5075769;28;20024;-86
2021/01/08 04:56:17;;;;;;;2.22;2.03;;;3.70;92.80;;;;;;5060094;28;20028;-86
2021/01/08 04:58:46;;;;;;;2.30;2.08;;;3.80;92.80;;;;;;5074956;28;20020;-88
2021/01/08 05:01:14;;;;;;;2.17;1.98;;;3.70;92.80;;;;;;5076368;28;20060;-86
2021/01/08 05:03:42;;;;;;;2.40;2.10;;;3.80;92.80;;;;;;5075486;28;20478;-87
2021/01/08 05:06:07;;;;;;;2.40;2.10;;;3.80;92.80;;;;;;5085015;28;20050;-87
2021/01/08 05:08:33;;;;;;;2.25;1.98;;;3.80;92.80;;;;;;5082117;28;20463;-87
2021/01/08 05:11:19;;;;;;;2.33;2.10;;;3.70;92.80;;;;;;5076228;28;20020;-86
2021/01/08 05:14:02;;;;;;;;;;;;;;;;;;;;;
2021/01/08 05:16:34;;;;;;;2.65;2.20;;;3.80;92.80;;;;;;5094520;28;20034;-87
2021/01/08 05:19:04;;;;;;;3.05;2.28;;;3.70;92.80;;;;;;5068127;28;20480;-87
2021/01/08 05:21:35;;;;;;;3.58;2.20;;;3.80;92.90;;;;;;5056330;28;20036;-87
2021/01/08 05:24:06;;;;;;;1.98;1.80;;;3.80;92.80;;;;;;5073357;28;20048;-86
2021/01/08 05:26:34;;;;;;;2.63;2.20;;;3.70;92.80;;;;;;5055909;28;21607;-87
2021/01/08 05:29:03;;;;;;;2.78;2.15;;;3.80;92.80;;;;;;5038874;28;20032;-87
2021/01/08 05:31:31;;;;;;;2.60;2.00;;;3.70;92.80;;;;;;5055853;28;20024;-87
2021/01/08 05:34:03;;;;;;;2.85;2.08;;;3.70;92.80;;;;;;5055352;28;20484;-86
2021/01/08 05:36:45;;;;;;;2.38;2.00;;;3.70;92.80;;;;;;5036340;28;20036;-86
2021/01/08 05:39:29;;;;;;;2.03;1.83;;;3.80;92.80;;;;;;5035999;28;20032;-88
2021/01/08 05:41:57;;;;;;;2.13;1.90;;;3.70;92.80;;;;;;5072165;28;20078;-87
2021/01/08 05:44:34;;;;;;;3.25;2.25;;;3.80;92.80;;;;;;5055291;28;20040;-87
2021/01/08 05:47:04;;;;;;;3.97;2.30;;;3.80;92.80;;;;;;5055097;28;20024;-87
2021/01/08 05:49:40;;;;;;;4.30;2.22;;;3.70;92.80;;;;;;5055342;28;20475;-87
2021/01/08 05:52:06;;;;;;;2.78;2.22;;;3.80;92.80;;;;;;5070688;28;20858;-86
2021/01/08 05:54:32;;;;;;;3.25;2.35;;;3.70;92.80;;;;;;5081393;28;20124;-87
2021/01/08 05:57:05;;;;;;;2.63;2.30;;;3.80;92.80;;;;;;5054885;28;20182;-86
2021/01/08 05:59:36;;;;;;;3.30;2.05;;;3.70;92.80;;;;;;5055266;28;20029;-87
2021/01/08 06:02:01;;;;;;;2.83;2.10;;;3.80;92.80;;;;;;5054983;28;20028;-87
2021/01/08 06:04:32;;;;;;;2.40;1.98;;;3.80;92.80;;;;;;5038760;28;20024;-87
2021/01/08 06:07:01;;;;;;;3.70;2.42;;;3.80;92.80;;;;;;5055191;28;20484;-86
2021/01/08 06:09:37;;;;;;;3.25;2.22;;;3.80;92.80;;;;;;5055299;28;20028;-87
2021/01/08 06:12:04;;;;;;;3.83;2.30;;;3.80;92.80;;;;;;5054802;28;20027;-86
2021/01/08 06:14:41;;;;;;;2.63;2.33;;;3.80;92.80;;;;;;5073115;28;20024;-89
2021/01/08 06:17:25;;;;;;;4.28;2.22;;;3.70;92.80;;;;;;5067510;28;20028;-89
2021/01/08 06:20:06;;;;;;;3.40;2.17;;;3.80;92.80;;;;;;5053416;28;20124;-89
2021/01/08 06:22:53;;;;;;;2.83;2.13;;;3.80;92.80;;;;;;5063792;28;20029;-89
2021/01/08 06:25:38;;;;;;;2.80;2.30;;;3.80;92.90;;;;;;5041268;28;20088;-89
2021/01/08 06:28:05;;;;;;;2.45;2.08;;;3.80;92.80;;;;;;5045882;28;20103;-88
2021/01/08 06:30:50;;;;;;;2.35;2.05;;;3.80;92.80;;;;;;5042534;28;20049;-89
2021/01/08 06:33:43;;;;;;;3.33;2.10;;;3.80;92.80;;;;;;5070450;28;20024;-89
2021/01/08 06:36:28;;;;;;;;;;;;;;;;;;;;;
2021/01/08 06:39:11;;;;;;;;;;;;;;;;;;;;;
2021/01/08 06:42:05;;;;;;;2.28;1.90;;;3.80;92.80;;;;;;5046756;28;20031;-88
2021/01/08 06:44:49;;;;;;;;;;;;;;;;;;;;;
2021/01/08 06:50:54;;;;;;;;;;;;;;;;;;;;;
2021/01/08 06:53:34;;;;;;;2.13;1.92;;;3.70;92.80;;;;;;5073065;28;20025;-89
2021/01/08 06:56:15;;;;;;;2.78;2.00;;;3.80;92.80;;;;;;5062363;28;20025;-89
2021/01/08 06:59:23;;;;;;;2.28;2.08;;;3.70;92.80;;;;;;5050731;28;20499;-90
2021/01/08 07:01:59;;;;;;;2.58;2.10;;;3.70;92.80;;;;;;5066248;28;20067;-86
2021/01/08 07:04:48;;;;;;;4.88;2.10;;;3.80;92.90;;;;;;5054526;28;20033;-87
2021/01/08 07:07:36;;;;;;;3.05;2.03;;;3.80;92.90;;;;;;5065151;28;20037;-87
2021/01/08 07:10:29;;;;;;;;;;;;;;;;;;;;;
2021/01/08 07:13:08;;;;;;;6.00;3.30;;;3.80;92.80;;;;;;5073618;28;20403;-89
2021/01/08 07:16:13;;;;;;;3.53;2.78;;;3.80;92.80;;;;;;5071174;28;20032;-89
2021/01/08 07:19:10;;;;;;;2.58;2.30;;;3.80;92.80;;;;;;5075033;28;20045;-88
2021/01/08 07:22:27;;;;;;;3.47;2.53;;;3.80;92.90;;;;;;5040206;28;20040;-88
2021/01/08 07:25:19;;;;;;;3.78;2.53;;;3.80;92.90;;;;;;5043750;28;20029;-87
2021/01/08 07:28:17;;;;;;;3.83;2.58;;;3.80;92.90;;;;;;5070721;28;20117;-88
2021/01/08 07:31:26;;;;;;;3.10;2.15;;;3.80;92.80;;;;;;5043428;28;20032;-88
2021/01/08 07:34:17;;;;;;;4.68;3.05;;;3.80;92.90;;;;;;5042654;28;20040;-87
2021/01/08 07:37:12;;;;;;;;;;;;;;;;;;;;;
2021/01/08 07:40:22;;;;;;;4.60;2.78;;;3.80;92.90;;;;;;5066945;28;20037;-87
2021/01/08 07:43:06;;;;;;;3.97;3.00;;;3.80;92.90;;;;;;5053954;28;20077;-87
2021/01/08 07:46:47;;;;;;;;;;;;;;;;;;;;;
2021/01/08 07:49:26;;;;;;;;;;;;;;;;;;;;;
2021/01/08 07:53:05;;;;;;;;;;;;;;;;;;;;;
2021/01/08 07:55:55;;;;;;;;;;;;;;;;;;;;;
2021/01/08 07:59:03;;;;;;;;;;;;;;;;;;;;;
2021/01/08 08:02:12;;;;;;;4.40;3.10;;;3.80;92.90;;;;;;5064301;28;20036;-89
2021/01/08 08:05:20;;;;;;;;;;;;;;;;;;;;;
2021/01/08 08:08:20;;;;;;;3.97;3.15;;;3.80;92.90;;;;;;5078106;28;20025;-87
2021/01/08 08:11:19;;;;;;;6.05;3.78;;;3.80;92.90;;;;;;5030762;28;20037;-86
2021/01/08 08:13:57;;;;;;;5.43;3.40;;;3.80;92.90;;;;;;5059652;28;20430;-86
2021/01/08 08:20:09;;;;;;;;;;;;;;;;;;;;;
2021/01/08 08:22:48;;;;;;;5.78;3.60;;;3.80;92.90;;;;;;5049960;28;20036;-87
2021/01/08 08:25:28;;;;;;;5.75;4.50;;;3.80;92.90;;;;;;5050009;28;20496;-87
2021/01/08 08:28:02;;;;;;;5.72;3.80;;;3.80;92.90;;;;;;5069443;28;20089;-87
2021/01/08 08:30:38;;;;;;;4.25;3.50;;;3.80;92.90;;;;;;5050478;28;20098;-88
2021/01/08 08:33:27;;;;;;;4.80;3.60;;;3.80;92.90;;;;;;5057366;28;20025;-86
2021/01/08 08:36:22;;;;;;;5.20;3.55;;;3.90;92.90;;;;;;5068610;28;20106;-88
2021/01/08 08:42:21;;;;;;;4.85;3.88;;;3.80;92.90;;;;;;5061273;28;20047;-87
2021/01/08 08:45:01;;;;;;;;;;;;;;;;;;;;;
2021/01/08 08:47:52;;;;;;;4.45;3.55;;;3.90;92.90;;;;;;5038318;28;20031;-86
2021/01/08 08:51:03;;;;;;;;;;;;;;;;;;;;;
2021/01/08 08:53:43;;;;;;;;;;;;;;;;;;;;;
2021/01/08 08:59:25;;;;;;;4.55;3.67;;;3.90;92.80;;;;;;4965660;28;20106;-90
2021/01/08 09:01:55;;;;;;;5.70;4.30;;;3.90;92.90;;;;;;5068463;28;20044;-87
2021/01/08 09:05:10;;;;;;;4.95;3.78;;;3.90;92.90;;;;;;5048930;28;20471;-86
2021/01/08 09:08:08;;;;;;;4.32;3.38;;;3.90;92.80;;;;;;5045782;28;20056;-88
2021/01/08 09:11:12;;;;;;;7.18;4.20;;;3.90;92.80;;;;;;4992508;28;20577;-87
2021/01/08 09:14:00;;;;;;;5.30;3.95;;;3.90;92.80;;;;;;5078009;28;20083;-87
2021/01/08 09:16:47;;;;;;;;;;;;;;;;;;;;;
2021/01/08 09:20:05;;;;;;;5.97;4.10;;;3.90;92.80;;;;;;5076478;28;20481;-87
2021/01/08 09:23:02;;;;;;;5.13;4.25;;;3.90;92.80;;;;;;5087399;28;20058;-88
2021/01/08 09:25:40;;;;;;;4.95;4.03;;;3.90;92.70;;;;;;5064739;28;20368;-87
2021/01/08 09:28:36;;;;;;;;;;;;;;;;;;;;;
2021/01/08 09:31:17;;;;;;;4.75;3.45;;;3.90;92.70;;;;;;5078009;28;20837;-86
2021/01/08 09:34:06;;;;;;;5.68;3.88;;;4.00;92.70;;;;;;5071738;28;20396;-86
2021/01/08 09:37:00;;;;;;;5.63;4.32;;;3.90;92.70;;;;;;5057513;28;20040;-86
2021/01/08 09:39:54;;;;;;;5.82;4.13;;;4.00;92.80;;;;;;5053906;28;20416;-87
2021/01/08 09:49:55;;;;;;;;;;;;;;;;;;;;;
2021/01/08 09:52:43;;;;;;;4.07;3.08;;;4.00;92.70;;;;;;5085132;28;20054;-87
2021/01/08 09:55:56;;;;;;;4.75;3.33;;;4.00;92.60;;;;;;5053901;28;20036;-88
2021/01/08 09:58:50;;;;;;;3.88;3.00;;;4.00;92.50;;;;;;5058957;28;20127;-87
2021/01/08 10:01:50;;;;;;;;;;;;;;;;;;;;;
2021/01/08 10:04:28;;;;;;;4.32;3.10;;;4.00;92.30;;;;;;5087806;28;20031;-88
2021/01/08 10:07:04;;;;;;;3.90;2.90;;;4.00;92.40;;;;;;5056488;28;20028;-88
2021/01/08 10:13:44;;;;;;;;;;;;;;;;;;;;;
2021/01/08 10:16:10;;;;;;;3.03;2.30;;;4.00;92.30;;;;;;5070369;28;20396;-87
2021/01/08 10:18:52;;;;;;;3.30;2.30;;;4.00;92.20;;;;;;5069200;28;20175;-87
2021/01/08 10:24:36;;;;;;;2.03;1.70;;;4.00;92.10;;;;;;5094312;28;20039;-91
2021/01/08 10:27:40;;;;;;;2.00;1.38;;;4.00;92.10;;;;;;5080631;28;20165;-88
2021/01/08 10:30:22;;;;;;;;;;;;;;;;;;;;;
2021/01/08 10:33:19;;;;;;;;;;;;;;;;;;;;;
2021/01/08 10:36:16;;;;;;;;;;;;;;;;;;;;;
2021/01/08 10:38:54;;;;;;;1.73;1.20;;;4.10;91.70;;;;;;5096888;28;20387;-87
2021/01/08 10:41:59;;;;;;;;;;;;;;;;;;;;;
2021/01/08 10:44:35;;;;;;;;;;;;;;;;;;;;;
2021/01/08 10:47:21;;;;;;;1.55;1.33;;;4.10;91.70;;;;;;5074347;28;20070;-87
2021/01/08 10:49:54;;;;;;;1.48;1.33;;;4.10;91.80;;;;;;5047646;28;20032;-87
2021/01/08 10:52:59;;;;;;;1.65;1.38;;;4.10;91.70;;;;;;5057379;28;20115;-88
2021/01/08 10:56:07;;;;;;;;;;;;;;;;;;;;;
2021/01/08 10:58:45;;;;;;;1.98;1.38;;;4.20;91.70;;;;;;5068230;28;20036;-87
2021/01/08 11:04:57;;;;;;;2.08;1.38;;;4.30;91.60;;;;;;5039319;28;20036;-87
2021/01/08 11:07:40;;;;;;;;;;;;;;;;;;;;;
2021/01/08 11:16:34;;;;;;;2.28;1.77;;;4.40;91.60;;;;;;5076565;28;20411;-87
2021/01/08 11:22:24;;;;;;;1.50;1.30;;;4.40;91.50;;;;;;5060688;28;20217;-87
2021/01/08 11:25:00;;;;;;;2.63;1.70;;;4.40;91.40;;;;;;5054791;28;20032;-89
2021/01/08 11:27:48;;;;;;;;;;;;;;;;;;;;;
2021/01/08 11:33:45;;;;;;;2.03;1.73;;;4.40;91.40;;;;;;5056631;28;20032;-88
2021/01/08 11:36:11;;;;;;;2.78;1.70;;;4.50;91.50;;;;;;5077216;28;20028;-86
2021/01/08 11:39:08;;;;;;;2.28;1.80;;;4.50;91.40;;;;;;5076593;28;20035;-88
2021/01/08 11:41:53;;;;;;;;;;;;;;;;;;;;;
2021/01/08 11:44:51;;;;;;;2.20;1.52;;;4.50;91.30;;;;;;5089902;28;20020;-88
2021/01/08 11:48:36;;;;;;;;;;;;;;;;;;;;;
2021/01/08 11:54:11;;;;;;;;;;;;;;;;;;;;;
2021/01/08 11:57:04;;;;;;;;;;;;;;;;;;;;;
2021/01/08 11:59:51;;;;;;;;;;;;;;;;;;;;;
2021/01/08 12:02:28;;;;;;;2.10;1.70;;;4.40;91.00;;;;;;5076295;28;20024;-88
2021/01/08 12:05:06;;;;;;;3.58;2.03;;;4.40;91.00;;;;;;5058286;28;20098;-87
2021/01/08 12:08:01;;;;;;;;;;;;;;;;;;;;;
2021/01/08 12:10:50;;;;;;;;;;;;;;;;;;;;;
2021/01/08 12:13:39;;;;;;;2.53;1.85;;;4.50;91.10;;;;;;5074984;28;20024;-88
2021/01/08 12:16:12;;;;;;;2.03;1.80;;;4.50;91.10;;;;;;5071741;28;20111;-90
2021/01/08 12:18:58;;;;;;;;;;;;;;;;;;;;;
2021/01/08 12:21:32;;;;;;;2.33;1.67;;;4.50;91.10;;;;;;5078324;28;20394;-87
2021/01/08 12:24:20;;;;;;;2.15;1.80;;;4.50;91.10;;;;;;5070805;28;20032;-87
2021/01/08 12:30:30;;;;;;;2.22;1.95;;;4.50;91.00;;;;;;5063781;28;20543;-90
2021/01/08 12:33:15;;;;;;;;;;;;;;;;;;;;;
2021/01/08 12:36:09;;;;;;;1.98;1.60;;;4.50;90.90;;;;;;5096748;28;20024;-88
2021/01/08 12:39:03;;;;;;;;;;;;;;;;;;;;;
2021/01/08 12:44:47;;;;;;;1.42;1.30;;;4.60;90.90;;;;;;5065280;28;20043;-88
2021/01/08 12:47:23;;;;;;;2.92;1.45;;;4.60;90.90;;;;;;5076975;28;20498;-87
2021/01/08 12:50:07;;;;;;;;;;;;;;;;;;;;;
2021/01/08 12:52:38;;;;;;;1.83;1.50;;;4.60;90.60;;;;;;5060512;28;20036;-88
2021/01/08 12:55:14;;;;;;;1.30;1.20;;;4.60;90.40;;;;;;5057443;28;20085;-86
2021/01/08 12:57:52;;;;;;;1.40;1.30;;;4.60;90.30;;;;;;5074283;28;20038;-86
2021/01/08 13:00:31;;;;;;;;;;;;;;;;;;;;;
2021/01/08 13:03:07;;;;;;;;;;;;;;;;;;;;;
2021/01/08 13:05:39;;;;;;;1.20;1.10;;;4.50;90.00;;;;;;5098884;28;20022;-87
2021/01/08 13:08:19;;;;;;;1.40;1.30;;;4.60;90.00;;;;;;5074055;28;20088;-89
2021/01/08 13:10:49;;;;;;;1.52;1.25;;;4.50;89.60;;;;;;5079048;28;20379;-87
2021/01/08 13:13:28;;;;;;;1.50;1.20;;;4.50;89.20;;;;;;5061773;28;20493;-89
2021/01/08 13:16:19;;;;;;;1.35;1.25;;;4.60;89.00;;;;;;5061906;28;20035;-88
2021/01/08 13:19:07;;;;;;;1.10;1.00;;;4.60;88.80;;;;;;5060600;28;20428;-89
2021/01/08 13:21:51;;;;;;;1.45;1.27;;;4.60;89.00;;;;;;5079183;28;20036;-90
2021/01/08 13:24:25;;;;;;;1.60;1.40;;;4.70;88.80;;;;;;5080347;28;20059;-86
2021/01/08 13:27:46;;;;;;;2.70;2.15;;;4.70;88.60;;;;;;5084412;28;20028;-87
2021/01/08 13:30:23;;;;;;;2.97;1.58;;;4.70;88.40;;;;;;5092919;28;20507;-87
2021/01/08 13:33:01;;;;;;;;;;;;;;;;;;;;;
2021/01/08 13:35:30;;;;;;;1.50;1.40;;;4.70;88.20;;;;;;5057450;28;20062;-88
2021/01/08 13:38:06;;;;;;;2.20;1.88;;;4.70;88.20;;;;;;5057055;28;20031;-87
2021/01/08 13:40:49;;;;;;;1.48;1.38;;;4.70;88.00;;;;;;5047807;28;20028;-86
2021/01/08 13:43:53;;;;;;;2.45;1.77;;;4.70;88.10;;;;;;5053093;28;20032;-88
2021/01/08 13:46:42;;;;;;;;;;;;;;;;;;;;;
2021/01/08 13:49:11;;;;;;;2.53;2.30;;;4.70;88.40;;;;;;5072255;28;20054;-88
2021/01/08 13:51:46;;;;;;;2.92;2.53;;;4.70;88.40;;;;;;5047986;28;20044;-87
2021/01/08 13:54:52;;;;;;;3.80;2.50;;;4.60;88.50;;;;;;5053073;28;20024;-87
2021/01/08 13:57:21;;;;;;;2.85;2.50;;;4.60;88.60;;;;;;5059766;28;20042;-86
2021/01/08 14:00:06;;;;;;;2.92;2.60;;;4.60;88.70;;;;;;5070667;28;20490;-87
2021/01/08 14:03:08;;;;;;;;;;;;;;;;;;;;;
2021/01/08 14:06:14;;;;;;;2.97;2.40;;;4.50;89.00;;;;;;5069680;28;20028;-87
2021/01/08 14:08:53;;;;;;;3.97;2.50;;;4.50;89.10;;;;;;5071567;28;20035;-87
2021/01/08 14:11:43;;;;;;;3.20;2.47;;;4.50;89.10;;;;;;5067724;28;20033;-88
2021/01/08 14:15:18;;;;;;;;;;;;;;;;;;;;;
2021/01/08 14:18:16;;;;;;;3.13;2.55;;;4.50;89.20;;;;;;5082495;28;20028;-90
2021/01/08 14:24:37;;;;;;;3.70;3.00;;;4.50;89.50;;;;;;5014795;28;20036;-88
2021/01/08 14:27:28;;;;;;;;;;;;;;;;;;;;;
2021/01/08 14:30:22;;;;;;;4.00;2.90;;;4.40;89.70;;;;;;5088572;28;20380;-89
2021/01/08 14:33:38;;;;;;;4.03;3.13;;;4.40;89.90;;;;;;5066867;28;20036;-89
2021/01/08 14:36:17;;;;;;;3.60;3.17;;;4.40;89.90;;;;;;5078141;28;20043;-89
2021/01/08 14:39:21;;;;;;;;;;;;;;;;;;;;;
2021/01/08 14:51:59;;;;;;;3.90;3.30;;;4.40;90.00;;;;;;5076556;28;21084;-88
2021/01/08 14:54:33;;;;;;;3.85;2.92;;;4.40;89.40;;;;;;5039249;28;20066;-91
2021/01/08 15:04:25;;;;;;;3.20;2.60;;;4.30;88.50;;;;;;5053073;28;20431;-88
2021/01/08 15:06:55;;;;;;;2.83;2.53;;;4.30;88.00;;;;;;5053802;28;20040;-89
2021/01/08 15:13:09;;;;;;;2.80;2.58;;;4.30;88.10;;;;;;5039311;28;20029;-88
2021/01/08 15:16:29;;;;;;;;;;;;;;;;;;;;;
2021/01/08 15:19:48;;;;;;;;;;;;;;;;;;;;;
2021/01/08 15:23:01;;;;;;;;;;;;;;;;;;;;;
2021/01/08 15:26:11;;;;;;;3.95;2.40;;;4.30;88.10;;;;;;5054602;28;20584;-90
2021/01/08 15:32:29;;;;;;;2.85;2.55;;;4.30;88.10;;;;;;5053305;28;20033;-88
2021/01/08 15:35:04;;;;;;;;;;;;;;;;;;;;;
2021/01/08 15:37:57;;;;;;;2.97;2.67;;;4.20;88.30;;;;;;5102282;28;20032;-88
2021/01/08 15:40:48;;;;;;;3.70;3.33;;;4.20;88.50;;;;;;5083396;28;20027;-87
2021/01/08 15:43:47;;;;;;;;;;;;;;;;;;;;;
2021/01/08 15:49:36;;;;;;;4.38;3.63;;;4.00;88.90;;;;;;5089754;28;20036;-86
2021/01/08 15:52:51;;;;;;;;;;;;;;;;;;;;;
2021/01/08 15:55:34;;;;;;;;;;;;;;;;;;;;;
2021/01/08 15:59:20;;;;;;;4.28;3.30;;;3.80;89.10;;;;;;5104090;28;20022;-87
2021/01/08 16:02:11;;;;;;;6.47;3.38;;;3.70;89.20;;;;;;5018818;28;20543;-89
2021/01/08 16:14:22;;;;;;;5.20;3.60;;;3.40;89.30;;;;;;5031122;28;20037;-87
2021/01/08 16:17:16;;;;;;;4.30;3.60;;;3.30;89.50;;;;;;5072960;28;20040;-88
2021/01/08 16:20:10;;;;;;;5.25;3.90;;;3.20;89.50;;;;;;5077678;28;20028;-89
2021/01/08 16:23:05;;;;;;;;;;;;;;;;;;;;;
2021/01/08 16:26:04;;;;;;;;;;;;;;;;;;;;;
2021/01/08 16:31:52;;;;;;;4.70;3.60;;;3.10;90.00;;;;;;5074632;28;20067;-90
2021/01/08 16:34:35;;;;;;;;;;;;;;;;;;;;;
2021/01/08 16:37:22;;;;;;;6.10;4.00;;;3.10;90.10;;;;;;5073256;28;20043;-87
2021/01/08 16:40:26;;;;;;;5.43;3.42;;;3.10;90.20;;;;;;5072892;28;20032;-87
2021/01/08 16:43:13;;;;;;;4.40;3.67;;;3.10;90.30;;;;;;5043463;28;20078;-87
2021/01/08 16:46:01;;;;;;;4.38;3.33;;;3.10;90.40;;;;;;5079214;28;20024;-87
2021/01/08 16:48:45;;;;;;;;;;;;;;;;;;;;;
2021/01/08 16:58:31;;;;;;;4.95;3.95;;;3.10;90.60;;;;;;5068319;28;20115;-87
2021/01/08 17:00:59;;;;;;;4.80;3.63;;;3.10;90.60;;;;;;5058305;28;20463;-85
2021/01/08 17:03:37;;;;;;;4.82;3.97;;;3.10;90.70;;;;;;5053234;28;20031;-86
2021/01/08 17:06:03;;;;;;;5.03;3.80;;;3.10;90.70;;;;;;5062326;28;20122;-85
2021/01/08 17:08:39;;;;;;;4.82;3.92;;;3.10;90.70;;;;;;5078123;28;20031;-85
2021/01/08 17:11:12;;;;;;;5.28;4.15;;;3.10;90.70;;;;;;5059710;28;20028;-85
2021/01/08 17:13:44;;;;;;;6.30;4.18;;;3.10;90.70;;;;;;5056926;28;20025;-86